Time;durP1;ratioP1;P1;durP2;ratioP2;P2;SDS_P1;SDS_P2;PMS_P1;PMS_P2;Temp;Humidity;BMP_temperature;BMP_pressure;BME280_temperature;BME280_humidity;BME280_pressure;Samples;Min_cycle;Max_cycle;Signal;HPM_P1;HPM_P2
2021/12/23 00:00:55;;;;;;;24.87;16.70;;;;;;;;;;4946561;28;20106;-86
2021/12/23 00:03:23;;;;;;;26.70;18.03;;;;;;;;;;4931693;28;20897;-86
2021/12/23 00:05:49;;;;;;;26.03;17.93;;;;;;;;;;4920612;28;20066;-86
2021/12/23 00:08:16;;;;;;;24.30;17.60;;;;;;;;;;4915849;28;20047;-86
2021/12/23 00:10:46;;;;;;;26.13;17.57;;;;;;;;;;4932672;28;20121;-86
2021/12/23 00:13:12;;;;;;;25.50;16.80;;;;;;;;;;4912926;28;20125;-86
2021/12/23 00:16:00;;;;;;;24.67;17.50;;;;;;;;;;4919250;28;20058;-86
2021/12/23 00:24:01;;;;;;;23.33;16.37;;;;;;;;;;4931603;28;20047;-86
2021/12/23 00:26:29;;;;;;;24.67;17.05;;;;;;;;;;4909573;28;20047;-86
2021/12/23 00:28:57;;;;;;;27.73;18.03;;;;;;;;;;4918461;28;20416;-86
2021/12/23 00:31:24;;;;;;;25.43;17.63;;;;;;;;;;4901487;28;20051;-86
2021/12/23 00:33:51;;;;;;;28.33;19.13;;;;;;;;;;4917914;28;20475;-87
2021/12/23 00:36:18;;;;;;;24.13;17.90;;;;;;;;;;4927127;28;20047;-87
2021/12/23 00:38:53;;;;;;;27.63;19.10;;;;;;;;;;4932028;28;20046;-86
2021/12/23 00:41:20;;;;;;;25.37;17.83;;;;;;;;;;4903465;28;20062;-87
2021/12/23 00:43:47;;;;;;;26.30;18.00;;;;;;;;;;4896754;28;20395;-87
2021/12/23 00:46:13;;;;;;;27.23;19.57;;;;;;;;;;4897758;28;20055;-87
2021/12/23 00:48:41;;;;;;;26.13;19.00;;;;;;;;;;4905315;29;20066;-87
2021/12/23 00:51:09;;;;;;;28.55;19.05;;;;;;;;;;4913282;28;20487;-87
2021/12/23 00:53:39;;;;;;;26.05;18.15;;;;;;;;;;4885047;28;20114;-86
2021/12/23 00:56:06;;;;;;;26.93;19.63;;;;;;;;;;4920151;28;20412;-86
2021/12/23 00:58:33;;;;;;;28.33;19.50;;;;;;;;;;4916328;28;20483;-86
2021/12/23 01:01:01;;;;;;;28.03;19.80;;;;;;;;;;4913004;29;20486;-86
2021/12/23 01:03:27;;;;;;;31.90;20.95;;;;;;;;;;4894278;28;21130;-86
2021/12/23 01:05:54;;;;;;;27.67;19.27;;;;;;;;;;4899008;29;20042;-86
2021/12/23 01:08:21;;;;;;;28.57;19.93;;;;;;;;;;4910655;28;20038;-86
2021/12/23 01:10:50;;;;;;;25.10;19.00;;;;;;;;;;4912107;28;20082;-86
2021/12/23 01:13:19;;;;;;;29.97;19.97;;;;;;;;;;4897883;28;20109;-86
2021/12/23 01:18:52;;;;;;;27.47;19.77;;;;;;;;;;4910496;28;20058;-86
2021/12/23 01:21:21;;;;;;;31.87;20.80;;;;;;;;;;4906085;28;20090;-86
2021/12/23 01:23:53;;;;;;;26.60;19.90;;;;;;;;;;4883210;28;20047;-86
2021/12/23 01:26:22;;;;;;;26.77;19.40;;;;;;;;;;4901315;28;20083;-87
2021/12/23 01:28:51;;;;;;;29.80;18.90;;;;;;;;;;4917926;28;20075;-87
2021/12/23 01:31:19;;;;;;;27.67;19.93;;;;;;;;;;4894642;28;20061;-86
2021/12/23 01:33:46;;;;;;;29.08;20.15;;;;;;;;;;4903085;28;20054;-86
2021/12/23 01:36:12;;;;;;;26.83;19.20;;;;;;;;;;4915769;28;20154;-87
2021/12/23 01:38:39;;;;;;;28.50;20.23;;;;;;;;;;4904985;29;20054;-87
2021/12/23 01:41:06;;;;;;;28.53;19.77;;;;;;;;;;4910885;29;20055;-87
2021/12/23 01:43:33;;;;;;;27.00;20.23;;;;;;;;;;4915441;28;20132;-86
2021/12/23 01:46:01;;;;;;;31.70;21.07;;;;;;;;;;4888492;29;20063;-86
2021/12/23 01:48:28;;;;;;;31.02;19.55;;;;;;;;;;4918241;28;20050;-86
2021/12/23 01:50:54;;;;;;;29.87;19.20;;;;;;;;;;4921139;28;20078;-86
2021/12/23 01:53:21;;;;;;;29.20;20.50;;;;;;;;;;4900176;28;20044;-86
2021/12/23 01:55:48;;;;;;;32.67;21.93;;;;;;;;;;4914899;28;20109;-87
2021/12/23 01:58:14;;;;;;;31.87;21.10;;;;;;;;;;4901384;28;20047;-86
2021/12/23 02:00:43;;;;;;;32.70;21.23;;;;;;;;;;4897597;29;20052;-87
2021/12/23 02:03:10;;;;;;;31.33;21.03;;;;;;;;;;4898502;28;20055;-87
2021/12/23 02:05:37;;;;;;;26.87;19.60;;;;;;;;;;4920549;28;20391;-87
2021/12/23 02:08:06;;;;;;;28.77;19.53;;;;;;;;;;4918290;29;20047;-86
2021/12/23 02:10:34;;;;;;;29.33;19.70;;;;;;;;;;4918388;28;20043;-86
2021/12/23 02:13:01;;;;;;;28.87;19.27;;;;;;;;;;4916562;28;20109;-87
2021/12/23 02:15:27;;;;;;;28.23;20.27;;;;;;;;;;4902947;28;20052;-87
2021/12/23 02:17:53;;;;;;;28.13;20.13;;;;;;;;;;4905943;28;20102;-87
2021/12/23 02:20:22;;;;;;;31.60;20.47;;;;;;;;;;4898045;28;20055;-86
2021/12/23 02:22:48;;;;;;;30.73;20.67;;;;;;;;;;4902228;28;20074;-87
2021/12/23 02:25:15;;;;;;;29.47;19.67;;;;;;;;;;4899677;28;20050;-86
2021/12/23 02:27:45;;;;;;;27.57;19.40;;;;;;;;;;4914646;28;20106;-86
2021/12/23 02:30:13;;;;;;;29.00;19.60;;;;;;;;;;4897456;28;20046;-86
2021/12/23 02:32:40;;;;;;;29.48;19.30;;;;;;;;;;4887622;29;20960;-87
2021/12/23 02:35:08;;;;;;;29.10;19.40;;;;;;;;;;4913072;28;20115;-87
2021/12/23 02:37:35;;;;;;;28.42;20.40;;;;;;;;;;4919661;28;20525;-87
2021/12/23 02:40:03;;;;;;;28.67;18.43;;;;;;;;;;4907426;29;20047;-87
2021/12/23 02:42:30;;;;;;;27.37;18.43;;;;;;;;;;4900444;28;20059;-86
2021/12/23 02:44:58;;;;;;;25.97;18.13;;;;;;;;;;4914240;28;20043;-87
2021/12/23 02:47:25;;;;;;;;;;;;;;;;;;4929121;28;20047;-87
2021/12/23 02:49:52;;;;;;;26.07;17.83;;;;;;;;;;4918902;28;20005;-87
2021/12/23 02:52:18;;;;;;;27.93;18.33;;;;;;;;;;4908498;28;20052;-87
2021/12/23 02:54:44;;;;;;;26.53;17.83;;;;;;;;;;4919010;28;20047;-87
2021/12/23 02:57:11;;;;;;;24.93;17.03;;;;;;;;;;4917534;28;20055;-87
2021/12/23 02:59:38;;;;;;;23.97;18.47;;;;;;;;;;4936629;28;20052;-86
2021/12/23 03:02:05;;;;;;;24.90;17.63;;;;;;;;;;4904213;28;20502;-86
2021/12/23 03:04:32;;;;;;;23.73;16.80;;;;;;;;;;4932260;28;20250;-87
2021/12/23 03:06:58;;;;;;;24.73;17.33;;;;;;;;;;4921469;28;20051;-87
2021/12/23 03:09:24;;;;;;;24.90;17.80;;;;;;;;;;4906414;28;20083;-87
2021/12/23 03:12:07;;;;;;;23.83;17.27;;;;;;;;;;4932750;28;20051;-87
2021/12/23 03:14:34;;;;;;;26.98;17.02;;;;;;;;;;4913216;28;20055;-87
2021/12/23 03:17:01;;;;;;;26.00;18.13;;;;;;;;;;4934721;28;21459;-87
2021/12/23 03:19:27;;;;;;;27.07;17.93;;;;;;;;;;4904432;28;20070;-87
2021/12/23 03:21:54;;;;;;;24.53;17.67;;;;;;;;;;4901802;28;20495;-87
2021/12/23 03:24:21;;;;;;;24.77;17.67;;;;;;;;;;4918282;28;20119;-87
2021/12/23 03:26:48;;;;;;;26.43;17.50;;;;;;;;;;4902197;28;20047;-87
2021/12/23 03:29:15;;;;;;;27.60;18.07;;;;;;;;;;4895782;28;20050;-86
2021/12/23 03:31:42;;;;;;;25.00;17.38;;;;;;;;;;4932598;28;20120;-86
2021/12/23 03:34:09;;;;;;;24.30;17.43;;;;;;;;;;4896055;28;20134;-86
2021/12/23 03:36:36;;;;;;;26.47;17.83;;;;;;;;;;4901273;28;20054;-86
2021/12/23 03:39:06;;;;;;;24.37;17.77;;;;;;;;;;4917402;28;20135;-86
2021/12/23 03:41:48;;;;;;;26.20;18.10;;;;;;;;;;4880870;29;20120;-86
2021/12/23 03:44:15;;;;;;;26.93;18.27;;;;;;;;;;4857450;29;20049;-86
2021/12/23 03:46:42;;;;;;;26.37;18.53;;;;;;;;;;4893068;29;20381;-86
2021/12/23 03:49:09;;;;;;;27.43;18.37;;;;;;;;;;4883375;29;20440;-86
2021/12/23 03:51:36;;;;;;;25.47;17.63;;;;;;;;;;4883429;29;20447;-87
2021/12/23 03:54:03;;;;;;;26.30;18.77;;;;;;;;;;4850963;29;20043;-87
2021/12/23 03:56:33;;;;;;;26.07;18.80;;;;;;;;;;4884982;29;20075;-87
2021/12/23 03:58:59;;;;;;;23.10;17.93;;;;;;;;;;4867492;29;20058;-87
2021/12/23 04:01:27;;;;;;;24.87;17.73;;;;;;;;;;4877156;29;20123;-87
2021/12/23 04:03:54;;;;;;;26.13;17.45;;;;;;;;;;4895262;29;20046;-86
2021/12/23 04:06:25;;;;;;;27.63;18.33;;;;;;;;;;4891397;29;20071;-87
2021/12/23 04:08:51;;;;;;;25.47;17.63;;;;;;;;;;4892241;29;20048;-87
2021/12/23 04:11:18;;;;;;;26.23;17.90;;;;;;;;;;4873347;29;20044;-86
2021/12/23 04:13:45;;;;;;;24.80;17.37;;;;;;;;;;4930102;28;20051;-86
2021/12/23 04:16:11;;;;;;;23.53;17.87;;;;;;;;;;4909365;28;20461;-86
2021/12/23 04:18:38;;;;;;;25.83;18.00;;;;;;;;;;4928114;28;20062;-86
2021/12/23 04:21:05;;;;;;;23.43;17.53;;;;;;;;;;4915574;28;20059;-86
2021/12/23 04:23:32;;;;;;;22.60;17.17;;;;;;;;;;4931031;28;20039;-86
2021/12/23 04:26:00;;;;;;;29.67;18.93;;;;;;;;;;4911628;28;20478;-86
2021/12/23 04:28:29;;;;;;;24.53;17.53;;;;;;;;;;4908198;28;20051;-86
2021/12/23 04:31:10;;;;;;;27.23;17.90;;;;;;;;;;4910279;28;20106;-86
2021/12/23 04:33:37;;;;;;;24.03;17.43;;;;;;;;;;4898688;28;20135;-86
2021/12/23 04:36:03;;;;;;;25.73;18.60;;;;;;;;;;4895655;29;20134;-87
2021/12/23 04:38:30;;;;;;;23.00;17.23;;;;;;;;;;4895069;29;20052;-87
2021/12/23 04:40:57;;;;;;;24.90;17.73;;;;;;;;;;4867204;29;20051;-86
2021/12/23 04:43:23;;;;;;;25.03;18.07;;;;;;;;;;4894744;28;20043;-85
2021/12/23 04:45:50;;;;;;;27.23;18.10;;;;;;;;;;4887315;29;20144;-87
2021/12/23 04:48:16;;;;;;;23.03;17.23;;;;;;;;;;4876685;29;20048;-87
2021/12/23 04:50:43;;;;;;;23.17;17.37;;;;;;;;;;4854152;29;20531;-87
2021/12/23 04:53:10;;;;;;;25.87;18.07;;;;;;;;;;4846216;29;20143;-87
2021/12/23 04:55:37;;;;;;;26.67;17.20;;;;;;;;;;4878533;29;20039;-87
2021/12/23 04:58:03;;;;;;;24.67;18.10;;;;;;;;;;4852854;29;20136;-87
2021/12/23 05:00:30;;;;;;;22.47;17.07;;;;;;;;;;4873188;29;20051;-86
2021/12/23 05:02:57;;;;;;;27.47;18.60;;;;;;;;;;4877784;29;20048;-86
2021/12/23 05:05:23;;;;;;;25.40;18.17;;;;;;;;;;4890465;29;20142;-87
2021/12/23 05:07:50;;;;;;;25.63;17.30;;;;;;;;;;4884394;29;20106;-86
2021/12/23 05:10:16;;;;;;;28.00;18.50;;;;;;;;;;4874554;29;20035;-87
2021/12/23 05:12:45;;;;;;;28.00;18.40;;;;;;;;;;4896929;29;20106;-87
2021/12/23 05:15:12;;;;;;;25.77;17.52;;;;;;;;;;4860057;29;20155;-87
2021/12/23 05:17:39;;;;;;;25.70;17.93;;;;;;;;;;4882423;29;21970;-87
2021/12/23 05:20:09;;;;;;;25.63;17.53;;;;;;;;;;4896648;28;20047;-88
2021/12/23 05:22:36;;;;;;;25.83;18.00;;;;;;;;;;4885796;28;20142;-87
2021/12/23 05:25:17;;;;;;;24.50;17.07;;;;;;;;;;4875597;29;20092;-87
2021/12/23 05:27:45;;;;;;;25.43;18.00;;;;;;;;;;4865989;29;20048;-85
2021/12/23 05:30:20;;;;;;;24.80;17.33;;;;;;;;;;4875155;29;20105;-86
2021/12/23 05:32:47;;;;;;;26.77;18.00;;;;;;;;;;4880803;29;20072;-86
2021/12/23 05:35:14;;;;;;;26.07;17.83;;;;;;;;;;4846215;29;20407;-87
2021/12/23 05:37:42;;;;;;;26.23;17.83;;;;;;;;;;4880325;29;20075;-87
2021/12/23 05:40:09;;;;;;;26.35;17.80;;;;;;;;;;4861680;29;20048;-87
2021/12/23 05:42:35;;;;;;;25.80;18.43;;;;;;;;;;4834348;29;20045;-87
2021/12/23 05:45:11;;;;;;;27.53;18.73;;;;;;;;;;4886403;29;20056;-87
2021/12/23 05:47:38;;;;;;;24.93;17.77;;;;;;;;;;4901565;29;20051;-87
2021/12/23 05:50:07;;;;;;;25.07;18.20;;;;;;;;;;4879464;29;20515;-88
2021/12/23 05:52:35;;;;;;;31.07;19.27;;;;;;;;;;4887271;29;20122;-87
2021/12/23 05:55:03;;;;;;;26.87;18.27;;;;;;;;;;4884983;29;20146;-87
2021/12/23 05:57:31;;;;;;;27.80;18.77;;;;;;;;;;4882160;29;20060;-87
2021/12/23 06:00:00;;;;;;;26.57;17.77;;;;;;;;;;4918842;29;20051;-87
2021/12/23 06:02:35;;;;;;;;;;;;;;;;;;4923136;28;20063;-87
2021/12/23 06:05:03;;;;;;;24.57;17.00;;;;;;;;;;4919996;29;19923;-87
2021/12/23 06:07:29;;;;;;;28.40;18.13;;;;;;;;;;4879314;29;20134;-87
2021/12/23 06:09:56;;;;;;;27.33;17.83;;;;;;;;;;4897306;29;20063;-87
2021/12/23 06:12:23;;;;;;;26.97;18.00;;;;;;;;;;4895342;29;20139;-84
2021/12/23 06:14:50;;;;;;;26.17;18.23;;;;;;;;;;4910539;28;20067;-86
2021/12/23 06:17:16;;;;;;;26.77;18.57;;;;;;;;;;4907836;29;20507;-86
2021/12/23 06:19:44;;;;;;;23.97;17.47;;;;;;;;;;4914882;29;20462;-87
2021/12/23 06:22:13;;;;;;;28.33;17.97;;;;;;;;;;4904494;29;20052;-87
2021/12/23 06:24:49;;;;;;;29.45;18.25;;;;;;;;;;4893992;29;20048;-84
2021/12/23 06:27:17;;;;;;;26.45;18.17;;;;;;;;;;4914228;29;20510;-86
2021/12/23 06:29:46;;;;;;;27.40;18.90;;;;;;;;;;4896404;29;20138;-87
2021/12/23 06:32:25;;;;;;;26.37;18.37;;;;;;;;;;4915216;28;20060;-87
2021/12/23 06:34:56;;;;;;;26.23;18.50;;;;;;;;;;4912945;28;20060;-87
2021/12/23 06:37:23;;;;;;;27.60;18.95;;;;;;;;;;4907920;29;20135;-87
2021/12/23 06:39:50;;;;;;;28.93;18.97;;;;;;;;;;4902979;29;20052;-87
2021/12/23 06:42:23;;;;;;;27.83;18.67;;;;;;;;;;4904647;28;20054;-87
2021/12/23 06:44:51;;;;;;;27.83;19.13;;;;;;;;;;4903954;28;20103;-86
2021/12/23 06:47:18;;;;;;;30.50;19.67;;;;;;;;;;4914488;28;20082;-87
2021/12/23 06:49:47;;;;;;;28.97;19.10;;;;;;;;;;4925187;28;20118;-87
2021/12/23 06:52:14;;;;;;;30.13;19.80;;;;;;;;;;4904176;28;20055;-87
2021/12/23 06:54:43;;;;;;;28.87;18.90;;;;;;;;;;4906898;28;20162;-87
2021/12/23 06:57:10;;;;;;;27.20;19.17;;;;;;;;;;4906814;28;20446;-87
2021/12/23 06:59:36;;;;;;;27.57;19.33;;;;;;;;;;4905232;29;20039;-86
2021/12/23 07:02:04;;;;;;;28.40;19.40;;;;;;;;;;4927880;28;20687;-86
2021/12/23 07:04:33;;;;;;;27.10;19.07;;;;;;;;;;4903536;28;20047;-86
2021/12/23 07:07:26;;;;;;;26.20;18.80;;;;;;;;;;4920288;28;20036;-87
2021/12/23 07:09:54;;;;;;;30.60;19.17;;;;;;;;;;4926137;28;20050;-86
2021/12/23 07:12:22;;;;;;;27.57;19.77;;;;;;;;;;4903157;28;20082;-87
2021/12/23 07:14:48;;;;;;;26.20;18.97;;;;;;;;;;4925387;28;20039;-88
2021/12/23 07:17:15;;;;;;;29.60;18.93;;;;;;;;;;4903559;28;20074;-88
2021/12/23 07:19:56;;;;;;;29.80;20.63;;;;;;;;;;4899975;29;20134;-88
2021/12/23 07:22:22;;;;;;;28.13;19.80;;;;;;;;;;4881353;29;20051;-88
2021/12/23 07:24:49;;;;;;;27.43;19.53;;;;;;;;;;4886503;29;20058;-88
2021/12/23 07:27:17;;;;;;;26.97;18.87;;;;;;;;;;4867357;29;20131;-87
2021/12/23 07:29:43;;;;;;;29.03;19.67;;;;;;;;;;4871848;29;20040;-87
2021/12/23 07:32:18;;;;;;;28.07;20.17;;;;;;;;;;4900745;29;20087;-87
2021/12/23 07:34:45;;;;;;;33.50;20.57;;;;;;;;;;4883400;29;20204;-88
2021/12/23 07:37:12;;;;;;;28.63;20.20;;;;;;;;;;4886572;29;20145;-87
2021/12/23 07:39:40;;;;;;;28.90;20.37;;;;;;;;;;4873252;29;20075;-87
2021/12/23 07:42:14;;;;;;;28.70;21.13;;;;;;;;;;4886958;29;20052;-88
2021/12/23 07:44:41;;;;;;;30.27;21.13;;;;;;;;;;4884292;29;20040;-87
2021/12/23 07:47:08;;;;;;;28.03;20.10;;;;;;;;;;4872739;29;20400;-87
2021/12/23 07:49:34;;;;;;;33.27;21.37;;;;;;;;;;4899960;29;20052;-87
2021/12/23 07:52:03;;;;;;;30.90;21.67;;;;;;;;;;4905744;28;20077;-88
2021/12/23 07:54:30;;;;;;;;;;;;;;;;;;4906009;28;20058;-87
2021/12/23 07:56:57;;;;;;;31.90;20.90;;;;;;;;;;4925581;28;19962;-87
2021/12/23 07:59:23;;;;;;;31.87;20.27;;;;;;;;;;4915816;28;20051;-87
2021/12/23 08:01:50;;;;;;;32.50;21.50;;;;;;;;;;4934529;28;20054;-87
2021/12/23 08:04:17;;;;;;;30.83;20.75;;;;;;;;;;4917857;28;20502;-87
2021/12/23 08:06:47;;;;;;;32.40;21.73;;;;;;;;;;4924052;28;20333;-88
2021/12/23 08:09:15;;;;;;;32.07;22.00;;;;;;;;;;4903048;28;20090;-88
2021/12/23 08:11:41;;;;;;;30.98;22.10;;;;;;;;;;4923168;29;20071;-89
2021/12/23 08:14:08;;;;;;;33.53;23.02;;;;;;;;;;4891749;28;20118;-87
2021/12/23 08:16:49;;;;;;;34.00;23.00;;;;;;;;;;4937821;28;20414;-88
2021/12/23 08:19:16;;;;;;;33.30;23.02;;;;;;;;;;4932496;28;20531;-87
2021/12/23 08:21:45;;;;;;;38.08;23.15;;;;;;;;;;4933841;28;20051;-87
2021/12/23 08:24:12;;;;;;;30.70;22.47;;;;;;;;;;4918811;28;20035;-87
2021/12/23 08:26:41;;;;;;;33.83;22.10;;;;;;;;;;4905755;29;20046;-87
2021/12/23 08:29:09;;;;;;;37.43;23.57;;;;;;;;;;4914583;28;20047;-86
2021/12/23 08:31:36;;;;;;;34.90;22.77;;;;;;;;;;4919097;28;20203;-87
2021/12/23 08:34:03;;;;;;;34.80;23.33;;;;;;;;;;4889292;29;20086;-87
2021/12/23 08:36:30;;;;;;;32.93;23.20;;;;;;;;;;4916056;28;20055;-87
2021/12/23 08:38:58;;;;;;;32.97;22.77;;;;;;;;;;4922489;28;20538;-87
2021/12/23 08:41:24;;;;;;;36.90;23.45;;;;;;;;;;4915695;28;20058;-87
2021/12/23 08:43:50;;;;;;;35.63;23.57;;;;;;;;;;4919975;28;20043;-87
2021/12/23 08:46:17;;;;;;;36.40;23.67;;;;;;;;;;4924192;28;20051;-88
2021/12/23 08:48:44;;;;;;;34.87;23.80;;;;;;;;;;4891544;29;20048;-87
2021/12/23 08:51:10;;;;;;;35.40;24.43;;;;;;;;;;4917909;28;20497;-87
2021/12/23 08:53:37;;;;;;;36.35;24.77;;;;;;;;;;4921143;28;20040;-88
2021/12/23 08:56:08;;;;;;;40.37;25.17;;;;;;;;;;4924161;28;20051;-87
2021/12/23 08:58:36;;;;;;;37.20;24.48;;;;;;;;;;4922167;28;20043;-87
2021/12/23 09:01:04;;;;;;;39.63;25.00;;;;;;;;;;4917339;28;20047;-87
2021/12/23 09:03:32;;;;;;;41.70;26.05;;;;;;;;;;4885419;28;20043;-87
2021/12/23 09:05:58;;;;;;;41.20;25.30;;;;;;;;;;4895379;28;20043;-87
2021/12/23 09:08:26;;;;;;;38.90;25.33;;;;;;;;;;4890817;28;20039;-87
2021/12/23 09:10:53;;;;;;;37.43;26.00;;;;;;;;;;4893892;28;20394;-87
2021/12/23 09:13:20;;;;;;;40.70;26.52;;;;;;;;;;4901568;28;20155;-88
2021/12/23 09:15:46;;;;;;;39.47;26.67;;;;;;;;;;4906136;28;20190;-87
2021/12/23 09:18:15;;;;;;;41.65;27.75;;;;;;;;;;4922467;28;20118;-88
2021/12/23 09:20:43;;;;;;;46.50;29.02;;;;;;;;;;4941200;28;20474;-88
2021/12/23 09:23:10;;;;;;;45.03;29.30;;;;;;;;;;4920122;28;20101;-87
2021/12/23 09:25:38;;;;;;;41.45;27.85;;;;;;;;;;4922388;28;20040;-88
2021/12/23 09:33:20;;;;;;;47.58;29.38;;;;;;;;;;4929501;28;20130;-88
2021/12/23 09:35:46;;;;;;;49.85;30.70;;;;;;;;;;4918437;29;20043;-88
2021/12/23 09:38:14;;;;;;;42.38;27.30;;;;;;;;;;4901746;28;20537;-88
2021/12/23 09:40:42;;;;;;;49.55;30.40;;;;;;;;;;4939768;28;20138;-88
2021/12/23 09:43:10;;;;;;;48.25;29.05;;;;;;;;;;4919773;28;20056;-88
2021/12/23 09:45:37;;;;;;;45.03;27.85;;;;;;;;;;4920289;28;20454;-89
2021/12/23 09:48:04;;;;;;;47.57;29.07;;;;;;;;;;4922211;28;20043;-89
2021/12/23 09:50:34;;;;;;;49.13;30.30;;;;;;;;;;4905362;28;20332;-89
2021/12/23 09:53:01;;;;;;;51.93;31.03;;;;;;;;;;4920223;29;20039;-90
2021/12/23 09:55:27;;;;;;;54.37;30.77;;;;;;;;;;4915304;28;20806;-90
2021/12/23 09:57:54;;;;;;;56.13;32.07;;;;;;;;;;4923823;28;20047;-89
2021/12/23 10:00:21;;;;;;;53.65;33.00;;;;;;;;;;4918113;28;20047;-89
2021/12/23 10:02:47;;;;;;;49.27;30.80;;;;;;;;;;4938222;28;20043;-89
2021/12/23 10:05:16;;;;;;;54.28;33.05;;;;;;;;;;4898003;28;20095;-89
2021/12/23 10:07:45;;;;;;;55.00;31.00;;;;;;;;;;4911569;28;20047;-89
2021/12/23 10:10:24;;;;;;;54.25;32.42;;;;;;;;;;4924997;28;20383;-89
2021/12/23 10:27:24;;;;;;;56.53;32.83;;;;;;;;;;4936291;29;20482;-89
2021/12/23 10:38:22;;;;;;;53.42;32.47;;;;;;;;;;4925572;28;20282;-88
2021/12/23 10:40:51;;;;;;;59.50;35.25;;;;;;;;;;4926284;28;20075;-88
2021/12/23 10:43:18;;;;;;;;;;;;;;;;;;4924066;28;20533;-87
2021/12/23 10:46:20;;;;;;;57.47;33.08;;;;;;;;;;4923952;28;20342;-87
2021/12/23 10:48:52;;;;;;;61.83;34.67;;;;;;;;;;4936243;28;20043;-87
2021/12/23 10:51:21;;;;;;;59.95;33.60;;;;;;;;;;4942593;28;20051;-88
2021/12/23 10:59:22;;;;;;;61.53;35.15;;;;;;;;;;4905624;28;20055;-87
2021/12/23 11:02:11;;;;;;;61.25;34.58;;;;;;;;;;4926975;28;20056;-87
2021/12/23 11:11:13;;;;;;;60.33;35.20;;;;;;;;;;4916598;29;20047;-87
2021/12/23 11:28:21;;;;;;;67.85;37.05;;;;;;;;;;4943512;28;20106;-85
2021/12/23 11:32:08;;;;;;;65.20;35.95;;;;;;;;;;4935501;28;20407;-85
2021/12/23 11:42:15;;;;;;;69.43;38.17;;;;;;;;;;4937842;28;20054;-85
2021/12/23 11:44:51;;;;;;;64.88;37.03;;;;;;;;;;4929560;28;20037;-85
2021/12/23 11:47:27;;;;;;;77.40;40.28;;;;;;;;;;4917282;28;20120;-85
2021/12/23 11:49:58;;;;;;;73.18;39.42;;;;;;;;;;4930399;28;20054;-85
2021/12/23 11:52:29;;;;;;;72.50;39.20;;;;;;;;;;4929972;28;20051;-84
2021/12/23 11:55:01;;;;;;;71.25;41.08;;;;;;;;;;4945459;28;20089;-84
2021/12/23 11:57:41;;;;;;;;;;;;;;;;;;;;;
2021/12/23 12:00:19;;;;;;;73.25;40.60;;;;;;;;;;4936631;28;20043;-86
2021/12/23 12:03:03;;;;;;;74.60;39.73;;;;;;;;;;4931568;28;20124;-84
2021/12/23 12:05:34;;;;;;;71.32;40.25;;;;;;;;;;4917648;28;20606;-84
2021/12/23 12:08:13;;;;;;;72.37;39.50;;;;;;;;;;4927201;28;20036;-85
2021/12/23 12:10:45;;;;;;;76.40;42.40;;;;;;;;;;4919676;29;20078;-84
2021/12/23 12:13:17;;;;;;;80.75;41.03;;;;;;;;;;4917004;28;20495;-85
2021/12/23 12:15:47;;;;;;;76.90;37.78;;;;;;;;;;4921402;28;20054;-85
2021/12/23 12:18:22;;;;;;;71.55;38.28;;;;;;;;;;4911750;28;20059;-85
2021/12/23 12:20:54;;;;;;;81.38;42.40;;;;;;;;;;4935358;28;20047;-84
2021/12/23 12:23:39;;;;;;;76.43;41.33;;;;;;;;;;4930624;28;20791;-85
2021/12/23 12:26:22;;;;;;;;;;;;;;;;;;;;;
2021/12/23 12:29:39;;;;;;;67.35;36.50;;;;;;;;;;4920387;28;20062;-84
2021/12/23 12:32:28;;;;;;;71.18;38.85;;;;;;;;;;4918683;28;20159;-86
2021/12/23 12:34:54;;;;;;;77.15;40.63;;;;;;;;;;4918100;28;20063;-84
2021/12/23 12:37:35;;;;;;;66.68;38.08;;;;;;;;;;4913624;28;20053;-82
2021/12/23 12:40:16;;;;;;;74.40;39.80;;;;;;;;;;4898988;28;20058;-86
2021/12/23 12:49:48;;;;;;;72.63;39.67;;;;;;;;;;4913638;28;20043;-78
2021/12/23 12:52:16;;;;;;;71.65;38.40;;;;;;;;;;4921773;28;20050;-77
2021/12/23 12:54:45;;;;;;;71.80;39.25;;;;;;;;;;4932919;28;20134;-79
2021/12/23 12:57:11;;;;;;;74.68;42.33;;;;;;;;;;4926298;28;20083;-81
2021/12/23 12:59:41;;;;;;;77.95;40.65;;;;;;;;;;4917240;28;20047;-79
2021/12/23 13:02:43;;;;;;;75.70;39.50;;;;;;;;;;4921999;28;20055;-75
2021/12/23 13:12:47;;;;;;;70.30;37.53;;;;;;;;;;4829081;29;20134;-80
2021/12/23 13:15:34;;;;;;;62.55;36.65;;;;;;;;;;4836715;29;20045;-81
2021/12/23 13:18:11;;;;;;;73.57;38.47;;;;;;;;;;4841223;29;20068;-80
2021/12/23 13:21:13;;;;;;;69.70;38.53;;;;;;;;;;4879725;29;20150;-81
2021/12/23 13:23:47;;;;;;;71.90;38.60;;;;;;;;;;4879990;28;20142;-80
2021/12/23 13:26:23;;;;;;;74.80;40.10;;;;;;;;;;4871546;29;20072;-80
2021/12/23 13:29:01;;;;;;;76.25;40.03;;;;;;;;;;4866086;29;20083;-81
2021/12/23 13:31:41;;;;;;;77.05;40.22;;;;;;;;;;4874970;29;22819;-81
2021/12/23 13:34:33;;;;;;;75.65;39.13;;;;;;;;;;4874579;29;20040;-82
2021/12/23 13:40:47;;;;;;;69.40;38.00;;;;;;;;;;4855571;29;20061;-81
2021/12/23 13:43:47;;;;;;;78.05;40.78;;;;;;;;;;4869638;29;20044;-81
2021/12/23 13:46:54;;;;;;;70.97;38.00;;;;;;;;;;4857745;29;20135;-81
2021/12/23 13:53:21;;;;;;;73.30;39.75;;;;;;;;;;4919159;28;20129;-81
2021/12/23 13:56:26;;;;;;;69.78;37.95;;;;;;;;;;4885821;29;20048;-81
2021/12/23 13:59:43;;;;;;;78.93;41.05;;;;;;;;;;4805045;29;20057;-81
2021/12/23 14:12:59;;;;;;;83.28;42.47;;;;;;;;;;4853898;29;20047;-81
2021/12/23 14:16:06;;;;;;;;;;;;;;;;;;;;;
2021/12/23 14:19:47;;;;;;;69.88;37.58;;;;;;;;;;4840883;29;20179;-82
2021/12/23 14:26:23;;;;;;;;;;;;;;;;;;;;;
2021/12/23 14:33:21;;;;;;;;;;;;;;;;;;;;;
2021/12/23 14:36:20;;;;;;;71.55;40.45;;;;;;;;;;4801487;29;20173;-81
2021/12/23 14:38:49;;;;;;;74.88;41.65;;;;;;;;;;4796219;29;20058;-79
2021/12/23 14:41:48;;;;;;;76.53;40.58;;;;;;;;;;4844197;29;20074;-81
2021/12/23 14:44:57;;;;;;;;;;;;;;;;;;;;;
2021/12/23 14:48:17;;;;;;;75.72;40.03;;;;;;;;;;4849026;29;20041;-81
2021/12/23 14:54:55;;;;;;;75.40;39.97;;;;;;;;;;4866503;29;20854;-81
2021/12/23 14:57:49;;;;;;;74.60;40.78;;;;;;;;;;4848985;29;20052;-81
2021/12/23 15:00:21;;;;;;;72.72;39.50;;;;;;;;;;4882485;28;20044;-81
2021/12/23 15:03:07;;;;;;;79.38;39.88;;;;;;;;;;4899873;28;20136;-82
2021/12/23 15:05:54;;;;;;;72.75;38.78;;;;;;;;;;4894764;28;20099;-81
2021/12/23 15:11:25;;;;;;;74.75;37.97;;;;;;;;;;4897907;28;20408;-79
2021/12/23 15:14:01;;;;;;;67.10;36.22;;;;;;;;;;4903721;29;20103;-81
2021/12/23 15:16:36;;;;;;;72.47;37.53;;;;;;;;;;4889475;28;20040;-80
2021/12/23 15:21:50;;;;;;;73.70;38.58;;;;;;;;;;4908865;28;20051;-78
2021/12/23 15:24:53;;;;;;;73.75;39.30;;;;;;;;;;4894977;28;20846;-81
2021/12/23 15:27:51;;;;;;;73.82;39.75;;;;;;;;;;4941092;28;20399;-82
2021/12/23 15:30:28;;;;;;;74.40;36.50;;;;;;;;;;4910509;28;20083;-80
2021/12/23 15:33:09;;;;;;;73.55;38.85;;;;;;;;;;4917502;28;20062;-82
2021/12/23 15:35:35;;;;;;;73.18;37.15;;;;;;;;;;4917196;28;20121;-81
2021/12/23 15:38:23;;;;;;;75.35;40.50;;;;;;;;;;4922373;28;20066;-81
2021/12/23 15:40:51;;;;;;;73.00;38.55;;;;;;;;;;4946936;28;20063;-81
2021/12/23 15:43:18;;;;;;;79.43;40.72;;;;;;;;;;4907592;28;20079;-82
2021/12/23 15:45:44;;;;;;;73.55;37.85;;;;;;;;;;4926459;28;20138;-81
2021/12/23 15:48:10;;;;;;;77.63;40.42;;;;;;;;;;4930097;28;20464;-81
2021/12/23 15:50:37;;;;;;;78.88;40.67;;;;;;;;;;4934080;28;20052;-81
2021/12/23 15:53:03;;;;;;;76.30;39.25;;;;;;;;;;4907501;29;20050;-81
2021/12/23 15:55:30;;;;;;;77.93;39.63;;;;;;;;;;4927422;28;20470;-81
2021/12/23 15:57:57;;;;;;;85.07;40.47;;;;;;;;;;4930270;28;20051;-81
2021/12/23 16:00:25;;;;;;;82.43;41.25;;;;;;;;;;4928720;28;20426;-81
2021/12/23 16:02:52;;;;;;;86.10;41.90;;;;;;;;;;4939603;28;20166;-81
2021/12/23 16:07:48;;;;;;;87.85;41.63;;;;;;;;;;4946434;28;20589;-81
2021/12/23 16:10:15;;;;;;;89.38;43.03;;;;;;;;;;4924965;28;20094;-82
2021/12/23 16:12:41;;;;;;;87.82;42.78;;;;;;;;;;4920091;28;20503;-80
2021/12/23 16:15:09;;;;;;;86.18;41.15;;;;;;;;;;4899271;28;20058;-81
2021/12/23 16:17:37;;;;;;;90.47;42.05;;;;;;;;;;4914009;28;20157;-81
2021/12/23 16:20:04;;;;;;;100.40;46.67;;;;;;;;;;4928445;28;20113;-81
2021/12/23 16:22:30;;;;;;;98.45;48.22;;;;;;;;;;4925524;28;20059;-81
2021/12/23 16:25:01;;;;;;;86.88;44.13;;;;;;;;;;4918483;28;20364;-80
2021/12/23 16:27:34;;;;;;;91.75;43.17;;;;;;;;;;4906396;28;20048;-82
2021/12/23 16:30:08;;;;;;;81.68;41.55;;;;;;;;;;4918318;28;20475;-84
2021/12/23 16:32:45;;;;;;;88.63;42.83;;;;;;;;;;4912974;28;20495;-82
2021/12/23 16:35:11;;;;;;;91.07;42.33;;;;;;;;;;4916246;28;20590;-81
2021/12/23 16:37:37;;;;;;;93.80;46.45;;;;;;;;;;4914081;28;20051;-82
2021/12/23 16:40:08;;;;;;;101.35;46.80;;;;;;;;;;4917542;28;21174;-81
2021/12/23 16:42:37;;;;;;;90.68;44.95;;;;;;;;;;4939558;28;20627;-81
2021/12/23 16:45:06;;;;;;;109.22;45.63;;;;;;;;;;4926575;28;20101;-81
2021/12/23 16:47:34;;;;;;;121.55;47.35;;;;;;;;;;4917093;28;20052;-79
2021/12/23 16:50:00;;;;;;;121.45;48.10;;;;;;;;;;4931042;28;20065;-80
2021/12/23 16:52:26;;;;;;;120.25;49.28;;;;;;;;;;4914347;28;20550;-81